MSC Amsterdam — 3EUJ — position and weather

sailwx.info

Track history (hours):
 
Tides and Currents Weather Stations Pressure Air Temp Water Temp Dewpoint Dewpoint Depression Visibility Wind Speed Wind Dir Waves Ship Positions

MSC Amsterdam

Last reported at 2017-Sep-14 16:34 UTC. Time now 2017-Sep-19 17:21 UTC.
Position N 25°21' E 120°17'.

Length 399 m; draft 10.6 m.

Type: Cargo ship. MMSI: 373598000.

Date/timePositionNaut miles runAvg speedWind from/ knotsBaromVisibWave heightAir tempDewpointWater temp
2017-Sep-14 16:34N 25°21' E 120°17'1 9.0
2017-Sep-14 16:30N 25°20' E 120°17'5 9.2
2017-Sep-14 15:55N 25°16' E 120°13'4 9.3
2017-Sep-14 15:30N 25°13' E 120°11'4 9.0
2017-Sep-14 15:00N 25°09' E 120°08'5 9.5
2017-Sep-14 14:30N 25°05' E 120°05'5 9.6
2017-Sep-14 14:00N 25°01' E 120°02'5 9.2
2017-Sep-14 13:29N 24°58' E 119°58'510.7
2017-Sep-14 13:00N 24°56' E 119°53'510.4
2017-Sep-14 12:30N 24°54' E 119°48'3 6.2
2017-Sep-14 11:59N 24°55' E 119°51'4 8.3
2017-Sep-14 11:27N 24°59' E 119°53'6 8.8
2017-Sep-14 10:46N 25°05' E 119°55'3 9.1
2017-Sep-14 10:28N 25°07' E 119°57'4 9.2
2017-Sep-14 09:59N 25°11' E 119°60'7 5.2
2017-Sep-14 08:32N 25°18' E 119°59'210.7
2017-Sep-14 08:23N 25°17' E 119°58'511.2
2017-Sep-14 07:54N 25°14' E 119°53'411.1
2017-Sep-14 07:30N 25°11' E 119°50'611.9
2017-Sep-14 06:58N 25°06' E 119°44'612.4
2017-Sep-14 06:30N 25°02' E 119°40'712.7
2017-Sep-14 05:55N 24°58' E 119°33'613.3
2017-Sep-14 05:30N 24°55' E 119°28'713.7
2017-Sep-14 04:59N 24°50' E 119°22'714.2
2017-Sep-14 04:30N 24°46' E 119°17'714.2
2017-Sep-14 04:00N 24°41' E 119°10'714.4
2017-Sep-14 03:30N 24°37' E 119°05'714.3
2017-Sep-14 03:00N 24°32' E 118°58'714.2
2017-Sep-14 02:30N 24°27' E 118°53'714.1
2017-Sep-14 02:00N 24°23' E 118°47'713.7
2017-Sep-14 01:30N 24°18' E 118°41'713.5
2017-Sep-14 01:00N 24°14' E 118°35'611.8
2017-Sep-14 00:30N 24°12' E 118°29'510.4
2017-Sep-14 00:00N 24°12' E 118°23'612.3
2017-Sep-13 23:30N 24°13' E 118°17'714.2
2017-Sep-13 23:00N 24°19' E 118°12'612.1
2017-Sep-13 22:30N 24°23' E 118°07'510.5
2017-Sep-13 21:59N 24°26' E 118°02'0 0.4
2017-Sep-13 21:26N 24°26' E 118°02'0 0.0
2017-Sep-13 20:59N 24°26' E 118°02'0 0.0
2017-Sep-13 20:29N 24°26' E 118°02'0 0.0
2017-Sep-13 19:57N 24°26' E 118°02'0 0.0
2017-Sep-13 19:30N 24°26' E 118°02'0 0.0
2017-Sep-13 19:00N 24°26' E 118°02'0 0.0
2017-Sep-13 18:30N 24°26' E 118°02'0 0.0
2017-Sep-13 18:00N 24°26' E 118°02'0 0.0
2017-Sep-13 17:30N 24°26' E 118°02'0 0.0
2017-Sep-13 17:00N 24°26' E 118°02'0 0.0
2017-Sep-13 16:31N 24°26' E 118°02'0 0.0
2017-Sep-13 16:00N 24°26' E 118°02'0 0.0
2017-Sep-13 15:30N 24°26' E 118°02'0 0.0
2017-Sep-13 15:00N 24°26' E 118°02'0 0.0
2017-Sep-13 14:30N 24°26' E 118°02'0 0.0
2017-Sep-13 14:00N 24°26' E 118°02'0 0.0
2017-Sep-13 13:30N 24°26' E 118°02'0 0.0
2017-Sep-13 13:00N 24°26' E 118°02'0 0.0
2017-Sep-13 12:30N 24°26' E 118°02'0 0.0
2017-Sep-13 12:00N 24°26' E 118°02'0 0.0
2017-Sep-13 11:30N 24°26' E 118°02'0 0.0
2017-Sep-13 11:00N 24°26' E 118°02'0 0.0
2017-Sep-13 10:30N 24°26' E 118°02'0 0.0
2017-Sep-13 10:00N 24°26' E 118°02'0 0.0
2017-Sep-13 09:30N 24°26' E 118°02'0 0.0
2017-Sep-13 09:00N 24°26' E 118°02'0 0.0
2017-Sep-13 08:30N 24°26' E 118°02'0 0.0
2017-Sep-13 08:00N 24°26' E 118°02'0 0.0
2017-Sep-13 07:30N 24°26' E 118°02'0 0.0
2017-Sep-13 07:00N 24°26' E 118°02'0 0.0
2017-Sep-13 06:30N 24°26' E 118°02'0 0.0
2017-Sep-13 06:00N 24°26' E 118°02'0 0.0
2017-Sep-13 05:30N 24°26' E 118°02'0 0.0
2017-Sep-13 05:00N 24°26' E 118°02'0 0.0
2017-Sep-13 04:30N 24°26' E 118°02'0 0.0
2017-Sep-13 04:00N 24°26' E 118°02'0 0.0
2017-Sep-13 03:30N 24°26' E 118°02'0 0.0
2017-Sep-13 03:01N 24°26' E 118°02'0 0.0
2017-Sep-13 02:30N 24°26' E 118°02'0 0.0
2017-Sep-13 02:00N 24°26' E 118°02'0 0.0
2017-Sep-13 01:30N 24°26' E 118°02'0 0.0
2017-Sep-13 01:00N 24°26' E 118°02'0 0.0
2017-Sep-13 00:29N 24°26' E 118°02'0 0.0
2017-Sep-13 00:00N 24°26' E 118°02'0 0.0
2017-Sep-12 23:30N 24°26' E 118°02'0 0.0
2017-Sep-12 23:00N 24°26' E 118°02'0 0.0
2017-Sep-12 22:30N 24°26' E 118°02'0 0.1
2017-Sep-12 22:00N 24°26' E 118°02'2 3.6
2017-Sep-12 21:30N 24°26' E 118°04'4 8.4
2017-Sep-12 21:01N 24°23' E 118°07'510.8
2017-Sep-12 20:31N 24°19' E 118°11'611.2
2017-Sep-12 20:00N 24°15' E 118°15'612.7
2017-Sep-12 19:30N 24°10' E 118°20'612.0
2017-Sep-12 19:00N 24°04' E 118°22'511.1
2017-Sep-12 18:30N 24°00' E 118°18'5 9.6
2017-Sep-12 17:59N 23°57' E 118°14'510.0
2017-Sep-12 17:30N 23°53' E 118°11'510.1
2017-Sep-12 17:00N 23°49' E 118°08'8 9.8
2017-Sep-12 16:12N 23°43' E 118°02'5 9.9
2017-Sep-12 15:43N 23°39' E 117°59'6412.5
2017-Sep-12 10:36N 22°42' E 117°28'  
2017-Sep-07 00:16N 01°16' E 104°06'411.9
2017-Sep-06 23:58N 01°15' E 104°03'613.1
2017-Sep-06 23:30N 01°13' E 103°57'813.9
2017-Sep-06 22:57N 01°12' E 103°49'3 6.2
2017-Sep-06 22:30N 01°14' E 103°47'3 2.1
2017-Sep-06 21:00N 01°16' E 103°46'0 0.0
2017-Sep-06 20:30N 01°16' E 103°46'0 0.0
2017-Sep-06 20:01N 01°16' E 103°46'0 0.0
2017-Sep-06 19:30N 01°16' E 103°46'0 0.0
2017-Sep-06 19:01N 01°16' E 103°46'0 0.0
2017-Sep-06 18:30N 01°16' E 103°46'0 0.0
2017-Sep-06 18:01N 01°16' E 103°46'0 0.0
2017-Sep-06 17:31N 01°16' E 103°46'0 0.0
2017-Sep-06 17:01N 01°16' E 103°46'0 0.0
2017-Sep-06 16:31N 01°16' E 103°46'0 0.0
2017-Sep-06 16:01N 01°16' E 103°46'0 0.0
2017-Sep-06 15:31N 01°16' E 103°46'0 0.0
2017-Sep-06 15:01N 01°16' E 103°46'0 0.0
2017-Sep-06 14:31N 01°16' E 103°46'0 0.0
2017-Sep-06 14:00N 01°16' E 103°46'0 0.0
2017-Sep-06 13:31N 01°16' E 103°46'0 0.0
2017-Sep-06 13:01N 01°16' E 103°46'0 0.0
2017-Sep-06 12:31N 01°16' E 103°46'0 0.0
2017-Sep-06 12:01N 01°16' E 103°46'0 0.0
2017-Sep-06 11:31N 01°16' E 103°46'0 0.0
2017-Sep-06 11:00N 01°16' E 103°46'0 0.0
2017-Sep-06 10:30N 01°16' E 103°46'0 0.0
2017-Sep-06 10:01N 01°16' E 103°46'0 0.0
2017-Sep-06 09:30N 01°16' E 103°46'0 0.0
2017-Sep-06 09:01N 01°16' E 103°46'0 0.0
2017-Sep-06 08:31N 01°16' E 103°46'0 0.0
2017-Sep-06 08:01N 01°16' E 103°46'0 0.0
2017-Sep-06 07:30N 01°16' E 103°46'0 0.0
2017-Sep-06 07:00N 01°16' E 103°46'0 0.0
2017-Sep-06 06:31N 01°16' E 103°46'0 0.0
2017-Sep-06 06:00N 01°16' E 103°46'0 0.0
2017-Sep-06 05:31N 01°16' E 103°46'0 0.0
2017-Sep-06 05:01N 01°16' E 103°46'0 0.0
2017-Sep-06 04:31N 01°16' E 103°46'0 0.0
2017-Sep-06 04:00N 01°16' E 103°46'0 0.0
2017-Sep-06 03:31N 01°16' E 103°46'0 0.0
2017-Sep-06 03:00N 01°16' E 103°46'0 0.0
2017-Sep-06 02:30N 01°16' E 103°46'0 0.0
2017-Sep-06 02:00N 01°16' E 103°46'0 0.2
2017-Sep-06 01:30N 01°16' E 103°46'1 2.3
2017-Sep-06 01:01N 01°15' E 103°46'3 5.8
2017-Sep-06 00:30N 01°15' E 103°43'5 9.1
2017-Sep-06 00:00N 01°12' E 103°39'4 8.8
2017-Sep-05 23:30N 01°12' E 103°35'4 8.9
2017-Sep-05 23:00N 01°10' E 103°31'815.6
2017-Sep-05 22:30N 01°13' E 103°23'917.9
2017-Sep-05 22:00N 01°19' E 103°17'  
Track history (hours):
 
Tides and Currents Weather Stations Pressure Air Temp Water Temp Dewpoint Dewpoint Depression Visibility Wind Speed Wind Dir Waves Ship Positions

MSC Amsterdam

Last reported at 2017-Sep-14 16:34 UTC. Time now 2017-Sep-19 17:21 UTC.
Position N 25°21' E 120°17'.

Length 399 m; draft 10.6 m.

Type: Cargo ship. MMSI: 373598000.

Date/timePositionNaut miles runAvg speedWind from/ knotsBaromVisibWave heightAir tempDewpointWater temp
2017-Sep-14 16:34N 25°21' E 120°17'1 9.0
2017-Sep-14 16:30N 25°20' E 120°17'5 9.2
2017-Sep-14 15:55N 25°16' E 120°13'4 9.3
2017-Sep-14 15:30N 25°13' E 120°11'4 9.0
2017-Sep-14 15:00N 25°09' E 120°08'5 9.5
2017-Sep-14 14:30N 25°05' E 120°05'5 9.6
2017-Sep-14 14:00N 25°01' E 120°02'5 9.2
2017-Sep-14 13:29N 24°58' E 119°58'510.7
2017-Sep-14 13:00N 24°56' E 119°53'510.4
2017-Sep-14 12:30N 24°54' E 119°48'3 6.2
2017-Sep-14 11:59N 24°55' E 119°51'4 8.3
2017-Sep-14 11:27N 24°59' E 119°53'6 8.8
2017-Sep-14 10:46N 25°05' E 119°55'3 9.1
2017-Sep-14 10:28N 25°07' E 119°57'4 9.2
2017-Sep-14 09:59N 25°11' E 119°60'7 5.2
2017-Sep-14 08:32N 25°18' E 119°59'210.7
2017-Sep-14 08:23N 25°17' E 119°58'511.2
2017-Sep-14 07:54N 25°14' E 119°53'411.1
2017-Sep-14 07:30N 25°11' E 119°50'611.9
2017-Sep-14 06:58N 25°06' E 119°44'612.4
2017-Sep-14 06:30N 25°02' E 119°40'712.7
2017-Sep-14 05:55N 24°58' E 119°33'613.3
2017-Sep-14 05:30N 24°55' E 119°28'713.7
2017-Sep-14 04:59N 24°50' E 119°22'714.2
2017-Sep-14 04:30N 24°46' E 119°17'714.2
2017-Sep-14 04:00N 24°41' E 119°10'714.4
2017-Sep-14 03:30N 24°37' E 119°05'714.3
2017-Sep-14 03:00N 24°32' E 118°58'714.2
2017-Sep-14 02:30N 24°27' E 118°53'714.1
2017-Sep-14 02:00N 24°23' E 118°47'713.7
2017-Sep-14 01:30N 24°18' E 118°41'713.5
2017-Sep-14 01:00N 24°14' E 118°35'611.8
2017-Sep-14 00:30N 24°12' E 118°29'510.4
2017-Sep-14 00:00N 24°12' E 118°23'612.3
2017-Sep-13 23:30N 24°13' E 118°17'714.2
2017-Sep-13 23:00N 24°19' E 118°12'612.1
2017-Sep-13 22:30N 24°23' E 118°07'510.5
2017-Sep-13 21:59N 24°26' E 118°02'0 0.4
2017-Sep-13 21:26N 24°26' E 118°02'0 0.0
2017-Sep-13 20:59N 24°26' E 118°02'0 0.0
2017-Sep-13 20:29N 24°26' E 118°02'0 0.0
2017-Sep-13 19:57N 24°26' E 118°02'0 0.0
2017-Sep-13 19:30N 24°26' E 118°02'0 0.0
2017-Sep-13 19:00N 24°26' E 118°02'0 0.0
2017-Sep-13 18:30N 24°26' E 118°02'0 0.0
2017-Sep-13 18:00N 24°26' E 118°02'0 0.0
2017-Sep-13 17:30N 24°26' E 118°02'0 0.0
2017-Sep-13 17:00N 24°26' E 118°02'0 0.0
2017-Sep-13 16:31N 24°26' E 118°02'0 0.0
2017-Sep-13 16:00N 24°26' E 118°02'0 0.0
2017-Sep-13 15:30N 24°26' E 118°02'0 0.0
2017-Sep-13 15:00N 24°26' E 118°02'0 0.0
2017-Sep-13 14:30N 24°26' E 118°02'0 0.0
2017-Sep-13 14:00N 24°26' E 118°02'0 0.0
2017-Sep-13 13:30N 24°26' E 118°02'0 0.0
2017-Sep-13 13:00N 24°26' E 118°02'0 0.0
2017-Sep-13 12:30N 24°26' E 118°02'0 0.0
2017-Sep-13 12:00N 24°26' E 118°02'0 0.0
2017-Sep-13 11:30N 24°26' E 118°02'0 0.0
2017-Sep-13 11:00N 24°26' E 118°02'0 0.0
2017-Sep-13 10:30N 24°26' E 118°02'0 0.0
2017-Sep-13 10:00N 24°26' E 118°02'0 0.0
2017-Sep-13 09:30N 24°26' E 118°02'0 0.0
2017-Sep-13 09:00N 24°26' E 118°02'0 0.0
2017-Sep-13 08:30N 24°26' E 118°02'0 0.0
2017-Sep-13 08:00N 24°26' E 118°02'0 0.0
2017-Sep-13 07:30N 24°26' E 118°02'0 0.0
2017-Sep-13 07:00N 24°26' E 118°02'0 0.0
2017-Sep-13 06:30N 24°26' E 118°02'0 0.0
2017-Sep-13 06:00N 24°26' E 118°02'0 0.0
2017-Sep-13 05:30N 24°26' E 118°02'0 0.0
2017-Sep-13 05:00N 24°26' E 118°02'0 0.0
2017-Sep-13 04:30N 24°26' E 118°02'0 0.0
2017-Sep-13 04:00N 24°26' E 118°02'0 0.0
2017-Sep-13 03:30N 24°26' E 118°02'0 0.0
2017-Sep-13 03:01N 24°26' E 118°02'0 0.0
2017-Sep-13 02:30N 24°26' E 118°02'0 0.0
2017-Sep-13 02:00N 24°26' E 118°02'0 0.0
2017-Sep-13 01:30N 24°26' E 118°02'0 0.0
2017-Sep-13 01:00N 24°26' E 118°02'0 0.0
2017-Sep-13 00:29N 24°26' E 118°02'0 0.0
2017-Sep-13 00:00N 24°26' E 118°02'0 0.0
2017-Sep-12 23:30N 24°26' E 118°02'0 0.0
2017-Sep-12 23:00N 24°26' E 118°02'0 0.0
2017-Sep-12 22:30N 24°26' E 118°02'0 0.1
2017-Sep-12 22:00N 24°26' E 118°02'2 3.6
2017-Sep-12 21:30N 24°26' E 118°04'4 8.4
2017-Sep-12 21:01N 24°23' E 118°07'510.8
2017-Sep-12 20:31N 24°19' E 118°11'611.2
2017-Sep-12 20:00N 24°15' E 118°15'612.7
2017-Sep-12 19:30N 24°10' E 118°20'612.0
2017-Sep-12 19:00N 24°04' E 118°22'511.1
2017-Sep-12 18:30N 24°00' E 118°18'5 9.6
2017-Sep-12 17:59N 23°57' E 118°14'510.0
2017-Sep-12 17:30N 23°53' E 118°11'510.1
2017-Sep-12 17:00N 23°49' E 118°08'8 9.8
2017-Sep-12 16:12N 23°43' E 118°02'5 9.9
2017-Sep-12 15:43N 23°39' E 117°59'6412.5
2017-Sep-12 10:36N 22°42' E 117°28'  
2017-Sep-07 00:16N 01°16' E 104°06'411.9
2017-Sep-06 23:58N 01°15' E 104°03'613.1
2017-Sep-06 23:30N 01°13' E 103°57'813.9
2017-Sep-06 22:57N 01°12' E 103°49'3 6.2
2017-Sep-06 22:30N 01°14' E 103°47'3 2.1
2017-Sep-06 21:00N 01°16' E 103°46'0 0.0
2017-Sep-06 20:30N 01°16' E 103°46'0 0.0
2017-Sep-06 20:01N 01°16' E 103°46'0 0.0
2017-Sep-06 19:30N 01°16' E 103°46'0 0.0
2017-Sep-06 19:01N 01°16' E 103°46'0 0.0
2017-Sep-06 18:30N 01°16' E 103°46'0 0.0
2017-Sep-06 18:01N 01°16' E 103°46'0 0.0
2017-Sep-06 17:31N 01°16' E 103°46'0 0.0
2017-Sep-06 17:01N 01°16' E 103°46'0 0.0
2017-Sep-06 16:31N 01°16' E 103°46'0 0.0
2017-Sep-06 16:01N 01°16' E 103°46'0 0.0
2017-Sep-06 15:31N 01°16' E 103°46'0 0.0
2017-Sep-06 15:01N 01°16' E 103°46'0 0.0
2017-Sep-06 14:31N 01°16' E 103°46'0 0.0
2017-Sep-06 14:00N 01°16' E 103°46'0 0.0
2017-Sep-06 13:31N 01°16' E 103°46'0 0.0
2017-Sep-06 13:01N 01°16' E 103°46'0 0.0
2017-Sep-06 12:31N 01°16' E 103°46'0 0.0
2017-Sep-06 12:01N 01°16' E 103°46'0 0.0
2017-Sep-06 11:31N 01°16' E 103°46'0 0.0
2017-Sep-06 11:00N 01°16' E 103°46'0 0.0
2017-Sep-06 10:30N 01°16' E 103°46'0 0.0
2017-Sep-06 10:01N 01°16' E 103°46'0 0.0
2017-Sep-06 09:30N 01°16' E 103°46'0 0.0
2017-Sep-06 09:01N 01°16' E 103°46'0 0.0
2017-Sep-06 08:31N 01°16' E 103°46'0 0.0
2017-Sep-06 08:01N 01°16' E 103°46'0 0.0
2017-Sep-06 07:30N 01°16' E 103°46'0 0.0
2017-Sep-06 07:00N 01°16' E 103°46'0 0.0
2017-Sep-06 06:31N 01°16' E 103°46'0 0.0
2017-Sep-06 06:00N 01°16' E 103°46'0 0.0
2017-Sep-06 05:31N 01°16' E 103°46'0 0.0
2017-Sep-06 05:01N 01°16' E 103°46'0 0.0
2017-Sep-06 04:31N 01°16' E 103°46'0 0.0
2017-Sep-06 04:00N 01°16' E 103°46'0 0.0
2017-Sep-06 03:31N 01°16' E 103°46'0 0.0
2017-Sep-06 03:00N 01°16' E 103°46'0 0.0
2017-Sep-06 02:30N 01°16' E 103°46'0 0.0
2017-Sep-06 02:00N 01°16' E 103°46'0 0.2
2017-Sep-06 01:30N 01°16' E 103°46'1 2.3
2017-Sep-06 01:01N 01°15' E 103°46'3 5.8
2017-Sep-06 00:30N 01°15' E 103°43'5 9.1
2017-Sep-06 00:00N 01°12' E 103°39'4 8.8
2017-Sep-05 23:30N 01°12' E 103°35'4 8.9
2017-Sep-05 23:00N 01°10' E 103°31'815.6
2017-Sep-05 22:30N 01°13' E 103°23'917.9
2017-Sep-05 22:00N 01°19' E 103°17'  

Dump ship's entire track history